PDA6104 UKWW-HESH
Flight info
| Callsign | PDA6104 |
|---|---|
| Flight time | 3h 9m |
| Altitude | 35000 |
| Route | NIROV P156 ODSAN M854 ODESE P156 DIGAM M856 RAKUR/N0446F350 UM856 BAG UA28 ERKUK UM856 OBRUK UA28 DOREN N131 EMEDA DCT KONFO L609 ODEDI Q30 NURIT/N0452F360 J10 NALSO R650 NOVPA NOVPA2G |
| Aircraft | A321/M-SDE3FGHIJ4RWY/LB1 |
Departure
| Time | 2026-05-04 14:15 |
|---|---|
| Airport | Vinnytsia/Gavyryshivka International Airport (UKWW) |
Arrival
| Time | 2026-05-04 17:24 |
|---|---|
| Airport | Sharm El Sheikh International Airport (HESH) |
| Time | Latitude | Longitude | Altitude | Speed | Heading |
|---|---|---|---|---|---|
| 2026-05-04 13:42 | 49.24291 | 28.60614 | 975 ft | 0 kts | 317° |
| 2026-05-04 14:10 | 49.24291 | 28.60613 | 983 ft | 1 kts | 317° |
| 2026-05-04 14:11 | 49.24297 | 28.60605 | 982 ft | 2 kts | 317° |
| 2026-05-04 14:11 | 49.24390 | 28.60654 | 977 ft | 14 kts | 10° |
| 2026-05-04 14:11 | 49.24435 | 28.60585 | 978 ft | 6 kts | 225° |
| 2026-05-04 14:12 | 49.24413 | 28.60621 | 977 ft | 8 kts | 108° |
| 2026-05-04 14:12 | 49.24370 | 28.60721 | 983 ft | 15 kts | 135° |
| 2026-05-04 14:12 | 49.24409 | 28.60779 | 975 ft | 12 kts | 319° |
| 2026-05-04 14:13 | 49.24488 | 28.60669 | 978 ft | 19 kts | 318° |
| 2026-05-04 14:13 | 49.24603 | 28.60515 | 980 ft | 25 kts | 319° |
| 2026-05-04 14:13 | 49.24735 | 28.60333 | 972 ft | 25 kts | 318° |
| 2026-05-04 14:13 | 49.24866 | 28.60155 | 978 ft | 25 kts | 319° |
| 2026-05-04 14:14 | 49.24944 | 28.60078 | 977 ft | 11 kts | 3° |
| 2026-05-04 14:14 | 49.25050 | 28.60238 | 977 ft | 12 kts | 65° |
| 2026-05-04 14:14 | 49.25018 | 28.60337 | 978 ft | 11 kts | 137° |
| 2026-05-04 14:15 | 49.24596 | 28.60921 | 964 ft | 103 kts | 137° |
| 2026-05-04 14:15 | 49.23031 | 28.63019 | 1568 ft | 158 kts | 138° |
| 2026-05-04 14:16 | 49.21243 | 28.65264 | 2500 ft | 184 kts | 140° |
| 2026-05-04 14:16 | 49.20199 | 28.66536 | 2840 ft | 200 kts | 139° |
| 2026-05-04 14:17 | 49.17538 | 28.68919 | 3165 ft | 249 kts | 152° |
| 2026-05-04 14:17 | 49.15925 | 28.70135 | 3605 ft | 265 kts | 153° |
| 2026-05-04 14:17 | 49.12530 | 28.72665 | 4963 ft | 276 kts | 153° |
| 2026-05-04 14:18 | 49.10796 | 28.73978 | 5660 ft | 280 kts | 153° |
| 2026-05-04 14:18 | 49.07279 | 28.76682 | 7063 ft | 286 kts | 152° |
| 2026-05-04 14:19 | 49.03720 | 28.79444 | 8432 ft | 292 kts | 152° |
| 2026-05-04 14:19 | 49.01900 | 28.80854 | 9130 ft | 295 kts | 152° |
| 2026-05-04 14:19 | 49.00061 | 28.82274 | 9815 ft | 298 kts | 152° |
| 2026-05-04 14:19 | 48.98196 | 28.83711 | 10281 ft | 309 kts | 152° |
| 2026-05-04 14:20 | 48.96228 | 28.85292 | 10434 ft | 330 kts | 146° |
| 2026-05-04 14:20 | 48.94218 | 28.87207 | 10564 ft | 351 kts | 145° |
| 2026-05-04 14:20 | 48.92097 | 28.89231 | 10821 ft | 366 kts | 146° |
| 2026-05-04 14:21 | 48.87754 | 28.93357 | 11954 ft | 374 kts | 145° |
| 2026-05-04 14:21 | 48.85537 | 28.95450 | 12575 ft | 377 kts | 145° |
| 2026-05-04 14:21 | 48.83309 | 28.97553 | 13203 ft | 380 kts | 144° |
| 2026-05-04 14:21 | 48.81061 | 28.99676 | 13826 ft | 382 kts | 144° |
| 2026-05-04 14:22 | 48.78790 | 29.01817 | 14393 ft | 385 kts | 144° |
| 2026-05-04 14:22 | 48.76507 | 29.03964 | 14966 ft | 388 kts | 144° |
| 2026-05-04 14:22 | 48.74208 | 29.06123 | 15534 ft | 390 kts | 145° |
| 2026-05-04 14:22 | 48.71892 | 29.08299 | 16132 ft | 393 kts | 145° |
| 2026-05-04 14:23 | 48.67225 | 29.12679 | 17296 ft | 397 kts | 145° |
| 2026-05-04 14:23 | 48.64896 | 29.14857 | 17848 ft | 400 kts | 145° |
| 2026-05-04 14:23 | 48.62488 | 29.17105 | 18386 ft | 403 kts | 146° |
| 2026-05-04 14:24 | 48.60128 | 29.19311 | 18852 ft | 406 kts | 146° |
| 2026-05-04 14:24 | 48.57715 | 29.21563 | 19337 ft | 408 kts | 146° |
| 2026-05-04 14:24 | 48.55291 | 29.23819 | 19828 ft | 411 kts | 146° |
| 2026-05-04 14:24 | 48.52853 | 29.26085 | 20310 ft | 414 kts | 146° |
| 2026-05-04 14:25 | 48.50392 | 29.28368 | 20784 ft | 416 kts | 146° |
| 2026-05-04 14:25 | 48.45436 | 29.32971 | 21696 ft | 421 kts | 146° |
| 2026-05-04 14:25 | 48.42933 | 29.35290 | 22135 ft | 424 kts | 146° |
| 2026-05-04 14:26 | 48.40445 | 29.37596 | 22563 ft | 426 kts | 146° |
| 2026-05-04 14:26 | 48.37912 | 29.39940 | 22986 ft | 429 kts | 146° |
| 2026-05-04 14:26 | 48.35366 | 29.42295 | 23404 ft | 431 kts | 146° |
| 2026-05-04 14:26 | 48.32808 | 29.44660 | 23772 ft | 434 kts | 146° |
| 2026-05-04 14:27 | 48.30229 | 29.47040 | 24121 ft | 436 kts | 146° |
| 2026-05-04 14:27 | 48.27636 | 29.49422 | 24470 ft | 438 kts | 147° |
| 2026-05-04 14:27 | 48.25033 | 29.51801 | 24820 ft | 440 kts | 147° |
| 2026-05-04 14:27 | 48.22408 | 29.54198 | 25175 ft | 442 kts | 147° |
| 2026-05-04 14:28 | 48.19778 | 29.56605 | 25512 ft | 444 kts | 147° |
| 2026-05-04 14:28 | 48.17178 | 29.58990 | 25842 ft | 446 kts | 147° |
| 2026-05-04 14:28 | 48.14534 | 29.61419 | 26169 ft | 448 kts | 147° |
| 2026-05-04 14:28 | 48.11868 | 29.63865 | 26501 ft | 450 kts | 147° |
| 2026-05-04 14:29 | 48.06508 | 29.68761 | 27116 ft | 454 kts | 147° |
| 2026-05-04 14:29 | 48.01003 | 29.73521 | 27678 ft | 459 kts | 150° |
| 2026-05-04 14:30 | 47.98196 | 29.75820 | 27961 ft | 462 kts | 151° |
| 2026-05-04 14:30 | 47.95402 | 29.78080 | 28251 ft | 464 kts | 151° |
| 2026-05-04 14:30 | 47.89700 | 29.82720 | 28755 ft | 470 kts | 151° |
| 2026-05-04 14:31 | 47.86836 | 29.85084 | 29122 ft | 470 kts | 151° |
| 2026-05-04 14:31 | 47.81136 | 29.89822 | 29944 ft | 468 kts | 151° |
| 2026-05-04 14:32 | 47.75451 | 29.94543 | 30628 ft | 467 kts | 152° |
| 2026-05-04 14:32 | 47.72613 | 29.96888 | 30995 ft | 466 kts | 152° |
| 2026-05-04 14:32 | 47.69826 | 29.99184 | 31361 ft | 464 kts | 152° |
| 2026-05-04 14:32 | 47.67006 | 30.01497 | 31696 ft | 463 kts | 152° |
| 2026-05-04 14:33 | 47.64188 | 30.03801 | 32059 ft | 462 kts | 152° |
| 2026-05-04 14:33 | 47.61379 | 30.06097 | 32411 ft | 461 kts | 152° |
| 2026-05-04 14:33 | 47.58575 | 30.08393 | 32737 ft | 460 kts | 152° |
| 2026-05-04 14:33 | 47.55780 | 30.10686 | 33103 ft | 458 kts | 152° |
| 2026-05-04 14:34 | 47.52994 | 30.12969 | 33472 ft | 456 kts | 152° |
| 2026-05-04 14:34 | 47.50223 | 30.15235 | 33829 ft | 454 kts | 152° |
| 2026-05-04 14:34 | 47.47464 | 30.17488 | 34156 ft | 453 kts | 151° |
| 2026-05-04 14:34 | 47.44749 | 30.19701 | 34413 ft | 452 kts | 151° |
| 2026-05-04 14:35 | 47.41996 | 30.21938 | 34666 ft | 451 kts | 151° |
| 2026-05-04 14:35 | 47.39248 | 30.24163 | 34902 ft | 451 kts | 151° |
| 2026-05-04 14:35 | 47.36491 | 30.26393 | 35001 ft | 452 kts | 151° |
| 2026-05-04 14:36 | 47.30973 | 30.30849 | 35019 ft | 452 kts | 151° |
| 2026-05-04 14:36 | 47.25457 | 30.35301 | 35017 ft | 452 kts | 152° |
| 2026-05-04 14:37 | 47.19980 | 30.39709 | 35016 ft | 452 kts | 152° |
| 2026-05-04 14:37 | 47.14276 | 30.43539 | 35018 ft | 450 kts | 165° |
| 2026-05-04 14:38 | 47.08172 | 30.45625 | 35013 ft | 451 kts | 168° |
| 2026-05-04 14:38 | 47.02034 | 30.47641 | 35011 ft | 453 kts | 168° |
| 2026-05-04 14:39 | 46.95922 | 30.49657 | 35012 ft | 454 kts | 168° |
| 2026-05-04 14:39 | 46.89745 | 30.51682 | 35017 ft | 455 kts | 168° |
| 2026-05-04 14:40 | 46.80451 | 30.54728 | 35024 ft | 456 kts | 168° |
| 2026-05-04 14:40 | 46.74251 | 30.56749 | 35028 ft | 457 kts | 168° |
| 2026-05-04 14:41 | 46.68085 | 30.58741 | 35030 ft | 457 kts | 168° |
| 2026-05-04 14:42 | 46.55682 | 30.62764 | 35034 ft | 457 kts | 167° |
| 2026-05-04 14:42 | 46.49478 | 30.64770 | 35028 ft | 457 kts | 167° |
| 2026-05-04 14:43 | 46.43307 | 30.66759 | 35015 ft | 458 kts | 167° |
| 2026-05-04 14:43 | 46.37108 | 30.68966 | 35011 ft | 459 kts | 165° |
| 2026-05-04 14:44 | 46.30946 | 30.71451 | 35006 ft | 461 kts | 163° |
| 2026-05-04 14:44 | 46.25811 | 30.73533 | 35006 ft | 462 kts | 164° |
| 2026-05-04 14:45 | 46.18593 | 30.76360 | 35010 ft | 463 kts | 164° |
| 2026-05-04 14:45 | 46.12358 | 30.78754 | 35017 ft | 464 kts | 164° |
| 2026-05-04 14:46 | 46.07178 | 30.80750 | 35025 ft | 464 kts | 164° |
| 2026-05-04 14:46 | 46.00950 | 30.83152 | 35029 ft | 463 kts | 164° |
| 2026-05-04 14:47 | 45.93718 | 30.85928 | 35026 ft | 462 kts | 164° |
| 2026-05-04 14:47 | 45.88523 | 30.87920 | 35028 ft | 462 kts | 164° |
| 2026-05-04 14:48 | 45.82339 | 30.90245 | 35026 ft | 462 kts | 164° |
| 2026-05-04 14:48 | 45.76123 | 30.92546 | 35029 ft | 461 kts | 163° |
| 2026-05-04 14:49 | 45.69914 | 30.94845 | 35026 ft | 461 kts | 163° |
| 2026-05-04 14:49 | 45.63713 | 30.97154 | 35024 ft | 460 kts | 163° |
| 2026-05-04 14:50 | 45.57522 | 30.99462 | 35023 ft | 460 kts | 163° |
| 2026-05-04 14:50 | 45.51386 | 31.01752 | 35019 ft | 459 kts | 163° |
| 2026-05-04 14:51 | 45.45195 | 31.04043 | 35019 ft | 460 kts | 163° |
| 2026-05-04 14:51 | 45.38988 | 31.06328 | 35010 ft | 461 kts | 163° |
| 2026-05-04 14:52 | 45.32786 | 31.08605 | 35008 ft | 461 kts | 163° |
| 2026-05-04 14:52 | 45.26609 | 31.10877 | 35001 ft | 462 kts | 163° |
| 2026-05-04 14:53 | 45.20382 | 31.13135 | 35008 ft | 462 kts | 163° |
| 2026-05-04 14:53 | 45.14133 | 31.15340 | 34995 ft | 463 kts | 163° |
| 2026-05-04 14:54 | 45.07860 | 31.17541 | 34997 ft | 464 kts | 163° |
| 2026-05-04 14:54 | 45.01635 | 31.19735 | 34989 ft | 465 kts | 163° |
| 2026-05-04 14:55 | 44.95356 | 31.21938 | 34994 ft | 465 kts | 163° |
| 2026-05-04 14:55 | 44.89076 | 31.24145 | 34998 ft | 465 kts | 162° |
| 2026-05-04 14:56 | 44.82794 | 31.26357 | 34999 ft | 465 kts | 162° |
| 2026-05-04 14:56 | 44.76551 | 31.28551 | 34997 ft | 466 kts | 162° |
| 2026-05-04 14:57 | 44.70259 | 31.30746 | 34994 ft | 466 kts | 162° |
| 2026-05-04 14:57 | 44.63966 | 31.32939 | 34987 ft | 466 kts | 162° |
| 2026-05-04 14:58 | 44.57667 | 31.35127 | 34984 ft | 466 kts | 162° |
| 2026-05-04 14:58 | 44.51407 | 31.37297 | 34980 ft | 467 kts | 162° |
| 2026-05-04 14:59 | 44.45107 | 31.39476 | 34981 ft | 467 kts | 162° |
| 2026-05-04 15:00 | 44.35638 | 31.42738 | 34990 ft | 467 kts | 162° |
| 2026-05-04 15:00 | 44.29339 | 31.44916 | 34983 ft | 467 kts | 162° |
| 2026-05-04 15:01 | 44.19894 | 31.48175 | 34980 ft | 466 kts | 162° |
| 2026-05-04 15:01 | 44.13634 | 31.50320 | 34973 ft | 466 kts | 162° |
| 2026-05-04 15:02 | 44.07344 | 31.52475 | 34982 ft | 466 kts | 161° |
| 2026-05-04 15:02 | 44.01047 | 31.54632 | 34968 ft | 466 kts | 161° |
| 2026-05-04 15:03 | 43.94793 | 31.56766 | 34967 ft | 466 kts | 161° |
| 2026-05-04 15:03 | 43.88498 | 31.58904 | 34952 ft | 466 kts | 161° |
| 2026-05-04 15:04 | 43.82201 | 31.61056 | 34958 ft | 466 kts | 161° |
| 2026-05-04 15:04 | 43.75888 | 31.63204 | 34962 ft | 467 kts | 161° |
| 2026-05-04 15:05 | 43.69615 | 31.65334 | 34951 ft | 467 kts | 161° |
| 2026-05-04 15:05 | 43.63303 | 31.67465 | 34941 ft | 468 kts | 161° |
| 2026-05-04 15:06 | 43.56968 | 31.69589 | 34938 ft | 468 kts | 161° |
| 2026-05-04 15:07 | 43.47452 | 31.72789 | 34930 ft | 470 kts | 161° |
| 2026-05-04 15:07 | 43.41125 | 31.74886 | 34916 ft | 472 kts | 161° |
| 2026-05-04 15:08 | 43.34731 | 31.76976 | 34920 ft | 473 kts | 161° |
| 2026-05-04 15:08 | 43.28330 | 31.79070 | 34910 ft | 474 kts | 161° |
| 2026-05-04 15:09 | 43.21898 | 31.81174 | 34920 ft | 475 kts | 161° |
| 2026-05-04 15:09 | 43.15465 | 31.83274 | 34915 ft | 476 kts | 161° |
| 2026-05-04 15:10 | 43.05810 | 31.86407 | 34907 ft | 478 kts | 161° |
| 2026-05-04 15:11 | 42.96097 | 31.89551 | 34922 ft | 479 kts | 161° |
| 2026-05-04 15:11 | 42.89611 | 31.91639 | 34905 ft | 479 kts | 161° |
| 2026-05-04 15:12 | 42.83165 | 31.93713 | 34900 ft | 480 kts | 161° |
| 2026-05-04 15:12 | 42.76668 | 31.95811 | 34891 ft | 480 kts | 161° |
| 2026-05-04 15:13 | 42.70179 | 31.97968 | 34915 ft | 480 kts | 161° |
| 2026-05-04 15:13 | 42.63703 | 32.00122 | 34908 ft | 479 kts | 161° |
| 2026-05-04 15:14 | 42.57225 | 32.02266 | 34901 ft | 479 kts | 161° |
| 2026-05-04 15:14 | 42.50789 | 32.04391 | 34895 ft | 479 kts | 161° |
| 2026-05-04 15:15 | 42.44316 | 32.06518 | 34914 ft | 479 kts | 161° |
| 2026-05-04 15:15 | 42.37838 | 32.08631 | 34907 ft | 479 kts | 161° |
| 2026-05-04 15:16 | 42.28116 | 32.11795 | 34890 ft | 479 kts | 161° |
| 2026-05-04 15:17 | 42.18434 | 32.14973 | 34914 ft | 479 kts | 161° |
| 2026-05-04 15:17 | 42.08701 | 32.18119 | 34897 ft | 480 kts | 162° |
| 2026-05-04 15:18 | 42.02207 | 32.20210 | 34902 ft | 480 kts | 162° |
| 2026-05-04 15:19 | 41.92521 | 32.23343 | 34906 ft | 480 kts | 162° |
| 2026-05-04 15:19 | 41.82784 | 32.26490 | 34931 ft | 480 kts | 162° |
| 2026-05-04 15:20 | 41.76285 | 32.28577 | 34922 ft | 480 kts | 162° |
| 2026-05-04 15:20 | 41.69813 | 32.30639 | 34940 ft | 481 kts | 162° |
| 2026-05-04 15:21 | 41.63296 | 32.32692 | 34942 ft | 481 kts | 162° |
| 2026-05-04 15:22 | 41.53510 | 32.35782 | 34939 ft | 481 kts | 162° |
| 2026-05-04 15:22 | 41.43725 | 32.38877 | 34957 ft | 483 kts | 163° |
| 2026-05-04 15:23 | 41.37232 | 32.40916 | 34952 ft | 483 kts | 163° |
| 2026-05-04 15:23 | 41.30692 | 32.42967 | 34936 ft | 483 kts | 163° |
| 2026-05-04 15:24 | 41.17589 | 32.47074 | 34952 ft | 484 kts | 163° |
| 2026-05-04 15:25 | 41.11068 | 32.49106 | 34952 ft | 485 kts | 163° |
| 2026-05-04 15:26 | 41.01213 | 32.52170 | 34940 ft | 486 kts | 164° |
| 2026-05-04 15:26 | 40.91330 | 32.55229 | 34955 ft | 486 kts | 164° |
| 2026-05-04 15:27 | 40.81487 | 32.58262 | 34939 ft | 487 kts | 165° |
| 2026-05-04 15:28 | 40.71594 | 32.61313 | 34931 ft | 487 kts | 165° |
| 2026-05-04 15:29 | 40.61688 | 32.64351 | 34932 ft | 487 kts | 165° |
| 2026-05-04 15:30 | 40.38622 | 32.71404 | 34903 ft | 487 kts | 166° |
| 2026-05-04 15:31 | 40.28722 | 32.74415 | 34891 ft | 487 kts | 166° |
| 2026-05-04 15:32 | 40.12264 | 32.79392 | 34896 ft | 487 kts | 166° |
| 2026-05-04 15:34 | 39.95526 | 32.82842 | 34888 ft | 488 kts | 173° |
| 2026-05-04 15:34 | 39.85461 | 32.84458 | 34885 ft | 488 kts | 172° |
| 2026-05-04 15:35 | 39.75337 | 32.86075 | 34882 ft | 489 kts | 172° |
| 2026-05-04 15:36 | 39.65248 | 32.87691 | 34888 ft | 489 kts | 172° |
| 2026-05-04 15:36 | 39.58497 | 32.88768 | 34892 ft | 489 kts | 173° |
| 2026-05-04 15:37 | 39.51745 | 32.89841 | 34890 ft | 489 kts | 173° |
| 2026-05-04 15:37 | 39.44997 | 32.90913 | 34882 ft | 489 kts | 173° |
| 2026-05-04 15:38 | 39.38293 | 32.91983 | 34878 ft | 489 kts | 174° |
| 2026-05-04 15:38 | 39.31529 | 32.93001 | 34884 ft | 489 kts | 175° |
| 2026-05-04 15:39 | 39.24763 | 32.93902 | 34895 ft | 488 kts | 175° |
| 2026-05-04 15:40 | 39.14674 | 32.95287 | 34883 ft | 488 kts | 174° |
| 2026-05-04 15:40 | 39.07934 | 32.96336 | 34871 ft | 489 kts | 174° |
| 2026-05-04 15:41 | 39.01166 | 32.97397 | 34875 ft | 489 kts | 174° |
| 2026-05-04 15:41 | 38.94416 | 32.98424 | 34885 ft | 489 kts | 175° |
| 2026-05-04 15:42 | 38.87668 | 32.99442 | 34893 ft | 488 kts | 174° |
| 2026-05-04 15:42 | 38.80977 | 33.00452 | 34884 ft | 487 kts | 175° |
| 2026-05-04 15:43 | 38.74237 | 33.01464 | 34886 ft | 487 kts | 174° |
| 2026-05-04 15:43 | 38.67499 | 33.02471 | 34883 ft | 488 kts | 175° |
| 2026-05-04 15:44 | 38.60758 | 33.03448 | 34886 ft | 488 kts | 175° |
| 2026-05-04 15:44 | 38.54070 | 33.04416 | 34905 ft | 487 kts | 175° |
| 2026-05-04 15:45 | 38.47345 | 33.05386 | 34902 ft | 486 kts | 176° |
| 2026-05-04 15:45 | 38.40613 | 33.06363 | 34894 ft | 486 kts | 176° |
| 2026-05-04 15:46 | 38.33896 | 33.07341 | 34896 ft | 487 kts | 176° |
| 2026-05-04 15:46 | 38.27214 | 33.08309 | 34899 ft | 486 kts | 176° |
| 2026-05-04 15:47 | 38.20489 | 33.09283 | 34894 ft | 486 kts | 175° |
| 2026-05-04 15:47 | 38.13778 | 33.10254 | 34899 ft | 485 kts | 176° |
| 2026-05-04 15:48 | 38.07068 | 33.11214 | 34900 ft | 485 kts | 176° |
| 2026-05-04 15:48 | 37.97047 | 33.12677 | 34891 ft | 485 kts | 175° |
| 2026-05-04 15:49 | 37.90338 | 33.13701 | 34900 ft | 486 kts | 175° |
| 2026-05-04 15:49 | 37.83626 | 33.14725 | 34903 ft | 486 kts | 175° |
| 2026-05-04 15:50 | 37.76920 | 33.15732 | 34905 ft | 485 kts | 175° |
| 2026-05-04 15:50 | 37.70255 | 33.16728 | 34911 ft | 485 kts | 176° |
| 2026-05-04 15:51 | 37.63570 | 33.17734 | 34913 ft | 483 kts | 176° |
| 2026-05-04 15:51 | 37.56907 | 33.18734 | 34892 ft | 482 kts | 176° |
| 2026-05-04 15:52 | 37.50248 | 33.19726 | 34902 ft | 481 kts | 176° |
| 2026-05-04 15:52 | 37.43599 | 33.20710 | 34901 ft | 481 kts | 176° |
| 2026-05-04 15:53 | 37.37005 | 33.21690 | 34884 ft | 480 kts | 176° |
| 2026-05-04 15:53 | 37.30363 | 33.22682 | 34891 ft | 481 kts | 176° |
| 2026-05-04 15:54 | 37.23725 | 33.23669 | 34891 ft | 481 kts | 176° |
| 2026-05-04 15:54 | 37.17081 | 33.24653 | 34877 ft | 481 kts | 176° |
| 2026-05-04 15:55 | 37.10487 | 33.25632 | 34893 ft | 480 kts | 176° |
| 2026-05-04 15:55 | 37.03868 | 33.26605 | 34897 ft | 479 kts | 176° |
| 2026-05-04 15:56 | 36.97260 | 33.27575 | 34883 ft | 478 kts | 176° |
| 2026-05-04 15:56 | 36.90653 | 33.28540 | 34865 ft | 477 kts | 176° |
| 2026-05-04 15:57 | 36.84096 | 33.29172 | 34881 ft | 473 kts | 184° |
| 2026-05-04 15:57 | 36.77516 | 33.29101 | 34868 ft | 473 kts | 184° |
| 2026-05-04 15:58 | 36.70941 | 33.29024 | 34855 ft | 472 kts | 184° |
| 2026-05-04 15:58 | 36.64365 | 33.28955 | 34849 ft | 472 kts | 184° |
| 2026-05-04 15:59 | 36.57802 | 33.28887 | 34840 ft | 472 kts | 184° |
| 2026-05-04 15:59 | 36.51294 | 33.28826 | 34837 ft | 470 kts | 185° |
| 2026-05-04 16:00 | 36.44753 | 33.28762 | 34841 ft | 469 kts | 185° |
| 2026-05-04 16:00 | 36.38235 | 33.28698 | 34841 ft | 468 kts | 185° |
| 2026-05-04 16:01 | 36.31719 | 33.28630 | 34837 ft | 468 kts | 185° |
| 2026-05-04 16:01 | 36.25257 | 33.28570 | 34840 ft | 467 kts | 185° |
| 2026-05-04 16:02 | 36.18767 | 33.28506 | 34839 ft | 467 kts | 185° |
| 2026-05-04 16:03 | 36.09026 | 33.28513 | 34830 ft | 466 kts | 184° |
| 2026-05-04 16:03 | 36.02544 | 33.28663 | 34843 ft | 465 kts | 185° |
| 2026-05-04 16:04 | 35.96145 | 33.28546 | 34847 ft | 462 kts | 186° |
| 2026-05-04 16:04 | 35.89701 | 33.29400 | 34839 ft | 473 kts | 171° |
| 2026-05-04 16:04 | 35.86505 | 33.30404 | 34841 ft | 474 kts | 171° |
| 2026-05-04 16:05 | 35.80129 | 33.32510 | 34839 ft | 475 kts | 170° |
| 2026-05-04 16:06 | 35.70599 | 33.35691 | 34852 ft | 475 kts | 170° |
| 2026-05-04 16:07 | 35.57822 | 33.39835 | 34869 ft | 475 kts | 171° |
| 2026-05-04 16:08 | 35.45029 | 33.43980 | 34869 ft | 475 kts | 171° |
| 2026-05-04 16:09 | 35.29056 | 33.49149 | 34881 ft | 477 kts | 171° |
| 2026-05-04 16:10 | 35.16209 | 33.53289 | 34902 ft | 477 kts | 171° |
| 2026-05-04 16:11 | 35.03432 | 33.57394 | 34908 ft | 476 kts | 171° |
| 2026-05-04 16:12 | 34.84342 | 33.63897 | 34908 ft | 480 kts | 166° |
| 2026-05-04 16:13 | 34.71839 | 33.69651 | 34861 ft | 480 kts | 167° |
| 2026-05-04 16:14 | 34.59330 | 33.75351 | 34888 ft | 480 kts | 167° |
| 2026-05-04 16:16 | 34.43584 | 33.81044 | 34894 ft | 464 kts | 181° |
| 2026-05-04 16:17 | 34.27611 | 33.83534 | 34920 ft | 464 kts | 181° |
| 2026-05-04 16:18 | 34.14811 | 33.85503 | 34936 ft | 463 kts | 182° |
| 2026-05-04 16:19 | 33.98898 | 33.87959 | 34933 ft | 461 kts | 182° |
| 2026-05-04 16:20 | 33.82999 | 33.90412 | 34970 ft | 460 kts | 182° |
| 2026-05-04 16:22 | 33.67228 | 33.92830 | 34976 ft | 457 kts | 182° |
| 2026-05-04 16:23 | 33.48386 | 33.95685 | 34962 ft | 455 kts | 183° |
| 2026-05-04 16:25 | 33.29593 | 33.98546 | 34995 ft | 453 kts | 183° |
| 2026-05-04 16:26 | 33.07769 | 34.01837 | 34982 ft | 452 kts | 183° |
| 2026-05-04 16:28 | 32.92216 | 34.04181 | 35016 ft | 451 kts | 183° |
| 2026-05-04 16:29 | 32.70444 | 34.07438 | 35021 ft | 450 kts | 184° |
| 2026-05-04 16:31 | 32.54972 | 34.09748 | 35006 ft | 449 kts | 183° |
| 2026-05-04 16:32 | 32.36589 | 34.15108 | 35019 ft | 477 kts | 163° |
| 2026-05-04 16:33 | 32.30997 | 34.19608 | 35028 ft | 498 kts | 148° |
| 2026-05-04 16:33 | 32.25785 | 34.24986 | 35037 ft | 497 kts | 148° |
| 2026-05-04 16:34 | 32.17987 | 34.32967 | 35054 ft | 496 kts | 148° |
| 2026-05-04 16:35 | 32.02337 | 34.48930 | 35020 ft | 495 kts | 149° |
| 2026-05-04 16:36 | 31.94531 | 34.56870 | 35057 ft | 494 kts | 149° |
| 2026-05-04 16:37 | 31.86770 | 34.64743 | 35071 ft | 493 kts | 149° |
| 2026-05-04 16:38 | 31.76363 | 34.75275 | 35034 ft | 493 kts | 149° |
| 2026-05-04 16:39 | 31.62889 | 34.86944 | 35074 ft | 460 kts | 171° |
| 2026-05-04 16:40 | 31.56845 | 34.88484 | 35082 ft | 433 kts | 188° |
| 2026-05-04 16:40 | 31.50893 | 34.88456 | 35081 ft | 427 kts | 191° |
| 2026-05-04 16:41 | 31.36047 | 34.88468 | 35064 ft | 428 kts | 191° |
| 2026-05-04 16:43 | 31.21221 | 34.88414 | 35036 ft | 428 kts | 190° |
| 2026-05-04 16:43 | 31.12285 | 34.88386 | 35048 ft | 428 kts | 190° |
| 2026-05-04 16:45 | 30.94406 | 34.88344 | 35031 ft | 432 kts | 188° |
| 2026-05-04 16:46 | 30.85275 | 34.90059 | 35050 ft | 446 kts | 180° |
| 2026-05-04 16:46 | 30.79163 | 34.91392 | 35059 ft | 446 kts | 180° |
| 2026-05-04 16:47 | 30.66987 | 34.94026 | 35071 ft | 447 kts | 180° |
| 2026-05-04 16:48 | 30.54759 | 34.96655 | 35068 ft | 447 kts | 180° |
| 2026-05-04 16:49 | 30.42527 | 34.99276 | 35029 ft | 448 kts | 180° |
| 2026-05-04 16:50 | 30.30248 | 35.01787 | 35060 ft | 448 kts | 180° |
| 2026-05-04 16:51 | 30.21035 | 35.03683 | 35046 ft | 449 kts | 180° |
| 2026-05-04 16:52 | 30.08776 | 35.06147 | 35064 ft | 443 kts | 185° |
| 2026-05-04 16:52 | 30.05748 | 35.06233 | 35058 ft | 430 kts | 193° |
| 2026-05-04 16:53 | 29.99918 | 35.05210 | 35072 ft | 423 kts | 198° |
| 2026-05-04 16:53 | 29.91268 | 35.03520 | 35843 ft | 419 kts | 198° |
| 2026-05-04 16:54 | 29.88391 | 35.02962 | 35987 ft | 419 kts | 198° |
| 2026-05-04 16:55 | 29.71212 | 34.99643 | 36001 ft | 418 kts | 198° |
| 2026-05-04 16:56 | 29.58236 | 34.93988 | 35987 ft | 390 kts | 229° |
| 2026-05-04 16:57 | 29.52360 | 34.87575 | 36011 ft | 400 kts | 216° |
| 2026-05-04 16:58 | 29.41739 | 34.82939 | 36030 ft | 410 kts | 207° |
| 2026-05-04 17:00 | 29.25658 | 34.76311 | 36036 ft | 411 kts | 207° |
| 2026-05-04 17:01 | 29.12230 | 34.70799 | 36028 ft | 412 kts | 207° |
| 2026-05-04 17:02 | 29.02024 | 34.65382 | 36026 ft | 395 kts | 226° |
| 2026-05-04 17:03 | 28.96467 | 34.58576 | 36002 ft | 391 kts | 232° |
| 2026-05-04 17:03 | 28.90988 | 34.51694 | 36026 ft | 394 kts | 230° |
| 2026-05-04 17:04 | 28.86588 | 34.47876 | 35486 ft | 402 kts | 219° |
| 2026-05-04 17:04 | 28.81854 | 34.44351 | 33858 ft | 411 kts | 219° |
| 2026-05-04 17:05 | 28.77033 | 34.40785 | 31885 ft | 421 kts | 218° |
| 2026-05-04 17:05 | 28.72083 | 34.37114 | 30111 ft | 427 kts | 218° |
| 2026-05-04 17:06 | 28.67081 | 34.33398 | 28220 ft | 430 kts | 218° |
| 2026-05-04 17:06 | 28.64579 | 34.31543 | 27347 ft | 430 kts | 218° |
| 2026-05-04 17:07 | 28.59515 | 34.27787 | 25235 ft | 438 kts | 218° |
| 2026-05-04 17:07 | 28.58687 | 34.27173 | 24917 ft | 439 kts | 218° |
| 2026-05-04 17:07 | 28.54419 | 34.24014 | 23306 ft | 441 kts | 218° |
| 2026-05-04 17:07 | 28.51860 | 34.22125 | 22477 ft | 436 kts | 218° |
| 2026-05-04 17:08 | 28.49332 | 34.20264 | 21730 ft | 430 kts | 218° |
| 2026-05-04 17:08 | 28.44059 | 34.17122 | 20035 ft | 432 kts | 205° |
| 2026-05-04 17:08 | 28.41219 | 34.16041 | 19189 ft | 429 kts | 205° |
| 2026-05-04 17:09 | 28.38390 | 34.14972 | 18329 ft | 426 kts | 205° |
| 2026-05-04 17:09 | 28.35589 | 34.13909 | 17445 ft | 423 kts | 205° |
| 2026-05-04 17:09 | 28.32852 | 34.12866 | 16639 ft | 418 kts | 204° |
| 2026-05-04 17:10 | 28.27380 | 34.10783 | 15070 ft | 412 kts | 204° |
| 2026-05-04 17:10 | 28.19356 | 34.07717 | 12921 ft | 401 kts | 202° |
| 2026-05-04 17:11 | 28.16721 | 34.06718 | 12255 ft | 398 kts | 202° |
| 2026-05-04 17:11 | 28.14107 | 34.05729 | 11596 ft | 394 kts | 202° |
| 2026-05-04 17:11 | 28.09080 | 34.03823 | 10959 ft | 368 kts | 202° |
| 2026-05-04 17:12 | 28.06717 | 34.02935 | 10956 ft | 347 kts | 202° |
| 2026-05-04 17:12 | 28.02337 | 34.01283 | 10713 ft | 318 kts | 203° |
| 2026-05-04 17:13 | 27.97143 | 33.99322 | 9929 ft | 283 kts | 203° |
| 2026-05-04 17:14 | 27.90735 | 33.98867 | 7833 ft | 299 kts | 155° |
| 2026-05-04 17:14 | 27.89057 | 34.00283 | 7218 ft | 303 kts | 133° |
| 2026-05-04 17:14 | 27.86737 | 34.03325 | 6321 ft | 300 kts | 130° |
| 2026-05-04 17:15 | 27.85419 | 34.05090 | 5767 ft | 298 kts | 129° |
| 2026-05-04 17:15 | 27.82749 | 34.08671 | 4613 ft | 296 kts | 128° |
| 2026-05-04 17:16 | 27.80265 | 34.11984 | 4369 ft | 255 kts | 129° |
| 2026-05-04 17:16 | 27.78010 | 34.16524 | 4007 ft | 186 kts | 77° |
| 2026-05-04 17:17 | 27.78260 | 34.17865 | 4052 ft | 162 kts | 54° |
| 2026-05-04 17:17 | 27.80164 | 34.20531 | 4033 ft | 147 kts | 43° |
| 2026-05-04 17:18 | 27.80804 | 34.21409 | 4027 ft | 143 kts | 38° |
| 2026-05-04 17:18 | 27.82220 | 34.23004 | 3853 ft | 144 kts | 41° |
| 2026-05-04 17:19 | 27.83687 | 34.24554 | 3519 ft | 145 kts | 41° |
| 2026-05-04 17:19 | 27.85149 | 34.26080 | 3149 ft | 144 kts | 41° |
| 2026-05-04 17:20 | 27.86607 | 34.27596 | 2780 ft | 144 kts | 39° |
| 2026-05-04 17:20 | 27.88078 | 34.29126 | 2397 ft | 144 kts | 43° |
| 2026-05-04 17:20 | 27.88804 | 34.29882 | 2220 ft | 141 kts | 43° |
| 2026-05-04 17:21 | 27.90256 | 34.31392 | 1850 ft | 143 kts | 42° |
| 2026-05-04 17:21 | 27.91718 | 34.32915 | 1495 ft | 143 kts | 42° |
| 2026-05-04 17:22 | 27.92443 | 34.33669 | 1332 ft | 141 kts | 41° |
| 2026-05-04 17:22 | 27.93158 | 34.34413 | 1137 ft | 143 kts | 41° |
| 2026-05-04 17:23 | 27.95334 | 34.36688 | 579 ft | 138 kts | 40° |
| 2026-05-04 17:23 | 27.96048 | 34.37424 | 411 ft | 139 kts | 40° |
| 2026-05-04 17:23 | 27.97426 | 34.38852 | 173 ft | 117 kts | 42° |
| 2026-05-04 17:24 | 27.97898 | 34.39342 | 174 ft | 67 kts | 43° |
| 2026-05-04 17:24 | 27.98207 | 34.39495 | 174 ft | 9 kts | 313° |
| 2026-05-04 17:25 | 27.98257 | 34.39435 | 172 ft | 12 kts | 313° |
| 2026-05-04 17:25 | 27.98377 | 34.39288 | 172 ft | 14 kts | 312° |
| 2026-05-04 17:26 | 27.98292 | 34.39148 | 172 ft | 18 kts | 223° |
| 2026-05-04 17:26 | 27.98009 | 34.38844 | 172 ft | 17 kts | 232° |
| 2026-05-04 17:27 | 27.97895 | 34.38717 | 172 ft | 6 kts | 223° |
| 2026-05-04 17:27 | 27.97839 | 34.38728 | 172 ft | 1 kts | 133° |
| 2026-05-04 17:28 | 27.97833 | 34.38736 | 172 ft | 0 kts | 133° |